Estación Meteorológica Peña el Pijo (Robertgarden) [ 01/30/23 14:58:31 CET ]

Fecha Hora Presion(HPa) Temp (°C) Humedad % Rocio (°C) Viento ( m/s) Direccion Lluvia 1Hora(mm) Lluvia 24H(mm) LLuvia Total(mm)
2010-Apr-27 01:01:17 1018.500 9.0 79 5.5         112.92
2010-Apr-27 02:01:16 1018.500 7.8 79 4.4         112.92
2010-Apr-27 03:03:20 1018.000 7.6 80 4.4         112.92
2010-Apr-27 04:01:13 1017.600 6.7 82 3.8         112.92
2010-Apr-27 05:01:21 1017.400 6.5 82 3.6         112.92
2010-Apr-27 06:01:13 1017.400 6.2 83 3.5         112.92
2010-Apr-27 07:01:16 1017.100 6.1 84 3.6         112.92
2010-Apr-27 08:01:10 1017.000 7.2 82 4.3         112.92
2010-Apr-27 09:01:12 1017.100 12.6 71 7.5         112.92
2010-Apr-27 10:01:10 1016.800 18.9 52 8.8         112.92
2010-Apr-27 11:01:13 1017.000 24.1 37 8.4         112.92
2010-Apr-27 12:01:14 1016.900 26.1 31 7.6         112.92
2010-Apr-27 13:01:14 1016.300 26.8 31 8.2         112.92
2010-Apr-27 14:01:15 1015.800 29.3 26 7.6 2.8 NNE     112.92
2010-Apr-27 15:01:16 1015.600 29.2 25 6.9         112.92
2010-Apr-27 16:01:17 1014.900 29.5 23 6.0         112.92
2010-Apr-27 17:01:14 1014.200 29.8 21 5.0         112.92
2010-Apr-27 18:01:14 1014.300 27.9 22 4.1         112.92
2010-Apr-27 19:01:16 1014.300 27.1 26 5.8         112.92
2010-Apr-27 20:01:17 1014.700 23.5 36 7.5         112.92
2010-Apr-27 21:01:16 1014.900 20.8 45 8.4         112.92
2010-Apr-27 22:01:18 1015.800 18.3 49 7.4         112.92
2010-Apr-27 23:01:10 1016.200 15.6 61 8.1         112.92

Temperatura Máxima:29°    Temperatura Mínima:
Presión Máxima:1018.500 Hpa    Presión Mínima:1014.200 Hpa


Volver